createdAt,value
2023-06-30T00:01:04.145Z,77.90
2023-06-30T00:03:32.669Z,77.80
2023-06-30T00:06:00.454Z,77.60
2023-06-30T00:08:28.459Z,77.55
2023-06-30T00:10:55.993Z,77.65
2023-06-30T00:13:23.590Z,77.74
2023-06-30T00:15:51.451Z,77.82
2023-06-30T00:18:18.996Z,77.73
2023-06-30T00:20:47.108Z,77.80
2023-06-30T00:23:14.926Z,77.88
2023-06-30T00:25:42.919Z,77.75
2023-06-30T00:28:11.801Z,77.69
2023-06-30T00:30:40.470Z,77.56
2023-06-30T00:33:09.648Z,77.40
2023-06-30T00:35:37.419Z,77.50
2023-06-30T00:38:05.366Z,77.40
2023-06-30T00:40:33.035Z,77.57
2023-06-30T00:43:02.109Z,77.45
2023-06-30T00:45:29.762Z,77.36
2023-06-30T00:47:59.055Z,77.34
2023-06-30T00:50:26.704Z,77.65
2023-06-30T00:52:54.233Z,77.59
2023-06-30T00:55:21.976Z,77.45
2023-06-30T00:57:49.553Z,77.31
2023-06-30T01:00:18.155Z,77.35
2023-06-30T01:03:10.537Z,77.26
2023-06-30T01:05:46.877Z,77.37
2023-06-30T01:08:53.187Z,77.27
2023-06-30T01:11:20.800Z,77.32
2023-06-30T01:13:49.479Z,77.56
2023-06-30T01:16:17.489Z,77.55
2023-06-30T01:18:46.052Z,77.67
2023-06-30T01:21:14.162Z,77.59
2023-06-30T01:23:59.955Z,77.84
2023-06-30T01:26:28.175Z,78.05
2023-06-30T01:28:55.947Z,78.17
2023-06-30T01:31:23.690Z,78.21
2023-06-30T01:33:51.403Z,78.28
2023-06-30T01:36:18.922Z,78.26
2023-06-30T01:38:46.460Z,78.23
2023-06-30T01:41:14.001Z,78.16
2023-06-30T01:43:41.605Z,77.99
2023-06-30T01:46:09.902Z,77.84
2023-06-30T01:48:37.498Z,77.99
2023-06-30T01:51:05.034Z,77.87
2023-06-30T01:53:32.836Z,77.76
2023-06-30T01:56:00.444Z,77.62
2023-06-30T01:58:28.085Z,77.75
2023-06-30T02:00:55.670Z,77.75
2023-06-30T02:03:23.691Z,77.68
2023-06-30T02:05:51.539Z,77.59
2023-06-30T02:08:19.166Z,77.60
2023-06-30T02:10:46.720Z,77.62
2023-06-30T02:13:14.330Z,77.56
2023-06-30T02:15:42.171Z,77.65
2023-06-30T02:18:10.073Z,77.83
2023-06-30T02:20:37.711Z,77.87
2023-06-30T02:23:05.384Z,77.77
2023-06-30T02:25:32.937Z,77.75
2023-06-30T02:28:00.490Z,77.80
2023-06-30T02:30:28.326Z,77.66
2023-06-30T02:32:56.244Z,77.64
2023-06-30T02:35:24.555Z,77.40
2023-06-30T02:37:54.813Z,77.34
2023-06-30T02:40:23.916Z,77.45
2023-06-30T02:42:51.481Z,77.45
2023-06-30T02:45:19.197Z,77.25
2023-06-30T02:47:47.282Z,77.14
2023-06-30T02:50:15.569Z,77.35
2023-06-30T02:52:47.964Z,77.47
2023-06-30T02:55:16.735Z,77.46
2023-06-30T02:58:03.591Z,77.47
2023-06-30T03:03:00.646Z,77.49
2023-06-30T03:05:35.968Z,77.50
2023-06-30T03:08:05.017Z,77.33
2023-06-30T03:10:32.982Z,77.36
2023-06-30T03:13:00.675Z,77.28
2023-06-30T03:15:28.487Z,77.07
2023-06-30T03:17:56.827Z,77.30
2023-06-30T03:20:24.983Z,77.34
2023-06-30T03:22:55.587Z,77.09
2023-06-30T03:25:23.388Z,77.20
2023-06-30T03:27:50.908Z,77.38
2023-06-30T03:30:18.478Z,77.62
2023-06-30T03:32:46.370Z,77.54
2023-06-30T03:35:14.066Z,77.28
2023-06-30T03:37:42.365Z,77.37
2023-06-30T03:40:11.096Z,77.44
2023-06-30T03:42:38.897Z,77.55
2023-06-30T03:45:07.204Z,77.47
2023-06-30T03:47:34.848Z,77.45
2023-06-30T03:50:02.474Z,77.14
2023-06-30T03:52:30.024Z,77.35
2023-06-30T03:54:57.890Z,77.33
2023-06-30T03:57:25.501Z,77.70
2023-06-30T03:59:53.319Z,77.40
2023-06-30T04:02:21.044Z,77.05
2023-06-30T04:04:49.009Z,77.24
2023-06-30T04:07:17.959Z,77.39
2023-06-30T04:09:45.585Z,77.64
2023-06-30T04:12:13.178Z,77.39
2023-06-30T04:14:40.785Z,76.69
2023-06-30T04:17:08.379Z,76.43
2023-06-30T04:19:35.947Z,76.53
2023-06-30T04:22:05.344Z,76.31
2023-06-30T04:24:33.300Z,76.43
2023-06-30T04:27:00.830Z,76.04
2023-06-30T04:29:28.950Z,75.78
2023-06-30T04:31:56.503Z,75.82
2023-06-30T04:34:24.074Z,75.68
2023-06-30T04:36:51.687Z,75.45
2023-06-30T04:39:20.744Z,75.72
2023-06-30T04:41:48.319Z,75.80
2023-06-30T04:44:16.094Z,76.10
2023-06-30T04:46:44.024Z,75.66
2023-06-30T04:49:11.640Z,75.33
2023-06-30T04:51:39.246Z,75.05
2023-06-30T04:54:07.243Z,74.97
2023-06-30T04:56:35.234Z,74.84
2023-06-30T04:59:02.981Z,74.11
2023-06-30T05:01:31.351Z,74.02
2023-06-30T05:03:59.612Z,73.48
2023-06-30T05:06:27.869Z,72.86
2023-06-30T05:08:55.433Z,72.86
2023-06-30T05:11:23.042Z,72.13
2023-06-30T05:13:51.118Z,71.55
2023-06-30T05:16:18.742Z,71.47
2023-06-30T05:18:46.687Z,70.93
2023-06-30T05:21:14.283Z,70.62
2023-06-30T05:23:41.985Z,70.41
2023-06-30T05:26:10.919Z,70.59
2023-06-30T05:28:38.796Z,70.27
2023-06-30T05:31:06.652Z,70.03
2023-06-30T05:33:34.461Z,69.95
2023-06-30T05:36:02.075Z,69.99
2023-06-30T05:38:29.708Z,69.02
2023-06-30T05:40:58.065Z,68.94
2023-06-30T05:43:26.431Z,68.71
2023-06-30T05:45:54.258Z,68.84
2023-06-30T05:48:22.234Z,68.09
2023-06-30T05:50:49.815Z,67.75
2023-06-30T05:53:17.455Z,67.77
2023-06-30T05:55:45.179Z,66.82
2023-06-30T05:58:13.189Z,66.57
2023-06-30T06:00:40.806Z,66.56
2023-06-30T06:03:08.435Z,67.00
2023-06-30T06:05:36.463Z,66.54
2023-06-30T06:08:04.576Z,67.22
2023-06-30T06:10:32.484Z,66.42
2023-06-30T06:13:00.166Z,65.47
2023-06-30T06:15:27.882Z,65.59
2023-06-30T06:17:55.732Z,65.35
2023-06-30T06:20:23.323Z,65.24
2023-06-30T06:22:50.916Z,65.89
2023-06-30T06:25:18.674Z,65.19
2023-06-30T06:27:46.198Z,64.93
2023-06-30T06:30:14.403Z,65.09
2023-06-30T06:32:42.128Z,65.16
2023-06-30T06:35:09.826Z,65.46
2023-06-30T06:37:37.442Z,65.43
2023-06-30T06:40:06.753Z,64.83
2023-06-30T06:42:34.295Z,64.55
2023-06-30T06:45:01.879Z,64.31
2023-06-30T06:48:07.384Z,63.38
2023-06-30T06:50:35.038Z,63.83
2023-06-30T06:53:02.610Z,64.12
2023-06-30T06:55:30.191Z,63.68
2023-06-30T06:57:57.741Z,64.50
2023-06-30T07:00:25.769Z,64.25
2023-06-30T07:02:53.826Z,64.82
2023-06-30T07:05:21.639Z,64.17
2023-06-30T07:07:49.365Z,64.50
2023-06-30T07:10:17.109Z,64.03
2023-06-30T07:12:45.762Z,62.03
2023-06-30T07:15:13.839Z,62.09
2023-06-30T07:17:41.729Z,62.60
2023-06-30T07:20:10.179Z,61.76
2023-06-30T07:22:37.773Z,61.48
2023-06-30T07:25:07.726Z,60.93
2023-06-30T07:27:39.912Z,61.13
2023-06-30T07:30:08.156Z,60.26
2023-06-30T07:32:36.343Z,60.48
2023-06-30T07:35:04.721Z,60.53
2023-06-30T07:37:32.270Z,61.50
2023-06-30T07:40:08.706Z,60.84
2023-06-30T07:42:44.808Z,61.39
2023-06-30T07:45:13.675Z,60.51
2023-06-30T07:47:42.221Z,58.16
2023-06-30T07:50:13.081Z,57.97
2023-06-30T07:52:45.089Z,58.55
2023-06-30T07:55:22.642Z,58.30
2023-06-30T07:57:50.524Z,58.29
2023-06-30T08:00:21.771Z,57.44
2023-06-30T08:02:50.327Z,58.16
2023-06-30T08:05:18.090Z,56.75
2023-06-30T08:07:50.530Z,56.28
2023-06-30T08:10:19.997Z,55.47
2023-06-30T08:12:47.883Z,55.15
2023-06-30T08:15:18.844Z,55.92
2023-06-30T08:17:54.614Z,55.82
2023-06-30T08:20:27.168Z,55.17
2023-06-30T08:22:55.972Z,53.98
2023-06-30T08:25:24.990Z,53.44
2023-06-30T08:27:53.065Z,53.42
2023-06-30T08:30:24.277Z,53.30
2023-06-30T08:32:53.240Z,52.35
2023-06-30T08:35:20.868Z,51.13
2023-06-30T08:37:52.710Z,50.93
2023-06-30T08:40:32.499Z,51.95
2023-06-30T08:43:01.197Z,51.66
2023-06-30T08:45:29.369Z,51.55
2023-06-30T08:47:58.654Z,51.39
2023-06-30T08:50:26.305Z,51.11
2023-06-30T08:52:54.209Z,50.83
2023-06-30T08:55:21.840Z,50.64
2023-06-30T08:57:49.587Z,49.94
2023-06-30T09:00:17.867Z,51.24
2023-06-30T09:02:50.488Z,50.24
2023-06-30T09:05:18.577Z,49.90
2023-06-30T09:07:48.116Z,49.90
2023-06-30T09:10:15.942Z,49.63
2023-06-30T09:12:44.909Z,50.02
2023-06-30T09:15:12.492Z,50.63
2023-06-30T09:17:40.108Z,49.39
2023-06-30T09:20:08.828Z,49.71
2023-06-30T09:22:54.213Z,49.10
2023-06-30T09:25:27.461Z,48.38
2023-06-30T09:27:56.104Z,49.20
2023-06-30T09:30:33.933Z,49.12
2023-06-30T09:33:06.379Z,48.88
2023-06-30T09:35:40.515Z,48.01
2023-06-30T09:38:12.179Z,47.73
2023-06-30T09:40:42.756Z,47.58
2023-06-30T09:43:14.390Z,47.08
2023-06-30T09:45:44.990Z,47.06
2023-06-30T09:48:12.983Z,47.34
2023-06-30T09:50:43.215Z,47.45
2023-06-30T09:53:10.846Z,47.44
2023-06-30T09:55:49.600Z,46.77
2023-06-30T09:58:18.732Z,46.17
2023-06-30T10:00:47.302Z,46.50
2023-06-30T10:03:18.448Z,46.37
2023-06-30T10:05:47.673Z,46.79
2023-06-30T10:08:15.788Z,45.21
2023-06-30T10:10:43.869Z,45.03
2023-06-30T10:13:12.505Z,44.96
2023-06-30T10:15:41.488Z,45.36
2023-06-30T10:18:11.378Z,45.10
2023-06-30T10:20:47.813Z,44.87
2023-06-30T10:23:21.638Z,44.03
2023-06-30T10:25:50.502Z,42.75
2023-06-30T10:28:19.488Z,42.57
2023-06-30T10:30:50.615Z,42.46
2023-06-30T10:33:18.274Z,42.26
2023-06-30T10:35:46.145Z,42.89
2023-06-30T10:38:14.569Z,42.45
2023-06-30T10:40:42.523Z,41.60
2023-06-30T10:43:11.495Z,40.67
2023-06-30T10:46:05.679Z,40.82
2023-06-30T10:48:33.276Z,40.62
2023-06-30T10:51:01.220Z,40.09
2023-06-30T10:53:28.868Z,39.70
2023-06-30T10:55:58.093Z,40.39
2023-06-30T10:58:25.948Z,40.08
2023-06-30T11:01:07.129Z,39.08
2023-06-30T11:03:57.665Z,39.84
2023-06-30T11:06:26.405Z,40.24
2023-06-30T11:09:01.428Z,40.95
2023-06-30T11:11:29.122Z,41.81
2023-06-30T11:14:07.108Z,42.82
2023-06-30T11:17:02.229Z,42.65
2023-06-30T11:19:29.804Z,42.89
2023-06-30T11:22:22.893Z,41.12
2023-06-30T11:24:50.768Z,40.18
2023-06-30T11:27:18.393Z,41.02
2023-06-30T11:29:46.409Z,42.32
2023-06-30T11:32:19.304Z,42.61
2023-06-30T11:34:47.037Z,42.25
2023-06-30T11:37:16.895Z,43.36
2023-06-30T11:39:51.990Z,42.89
2023-06-30T11:42:20.645Z,44.33
2023-06-30T11:44:51.695Z,46.44
2023-06-30T11:47:22.067Z,50.40
2023-06-30T11:49:50.058Z,52.33
2023-06-30T11:52:18.967Z,53.36
2023-06-30T11:54:46.883Z,54.33
2023-06-30T11:57:14.564Z,53.83
2023-06-30T11:59:42.957Z,52.71
2023-06-30T12:02:11.680Z,50.49
2023-06-30T12:04:39.504Z,53.84
2023-06-30T12:07:07.725Z,55.93
2023-06-30T12:09:35.576Z,57.42
2023-06-30T12:12:04.026Z,59.43
2023-06-30T12:14:31.660Z,61.22
2023-06-30T12:16:59.488Z,62.30
2023-06-30T12:19:30.054Z,62.54
2023-06-30T12:22:00.981Z,62.37
2023-06-30T12:24:33.279Z,61.82
2023-06-30T12:27:08.694Z,62.26
2023-06-30T12:29:37.228Z,61.60
2023-06-30T12:32:15.683Z,61.38
2023-06-30T12:34:43.443Z,61.42
2023-06-30T12:37:13.103Z,60.15
2023-06-30T12:39:40.696Z,58.58
2023-06-30T12:42:08.440Z,56.55
2023-06-30T12:44:36.032Z,56.34
2023-06-30T12:47:15.715Z,55.29
2023-06-30T12:49:43.357Z,55.45
2023-06-30T12:52:10.879Z,55.61
2023-06-30T12:54:38.476Z,56.19
2023-06-30T12:57:06.658Z,56.45
2023-06-30T12:59:34.909Z,56.17
2023-06-30T13:02:02.509Z,55.85
2023-06-30T13:04:30.245Z,55.38
2023-06-30T13:07:00.047Z,54.57
2023-06-30T13:09:27.766Z,53.65
2023-06-30T13:11:55.338Z,51.58
2023-06-30T13:14:22.897Z,50.71
2023-06-30T13:16:50.417Z,49.05
2023-06-30T13:19:18.195Z,48.00
2023-06-30T13:21:45.853Z,46.96
2023-06-30T13:24:13.494Z,45.53
2023-06-30T13:26:41.141Z,45.57
2023-06-30T13:29:08.746Z,45.01
2023-06-30T13:31:36.334Z,45.14
2023-06-30T13:34:04.030Z,46.05
2023-06-30T13:36:31.635Z,46.05
2023-06-30T13:38:59.433Z,46.84
2023-06-30T13:41:27.885Z,47.71
2023-06-30T13:43:55.602Z,48.28
2023-06-30T13:46:23.696Z,48.59
2023-06-30T13:48:51.755Z,49.12
2023-06-30T13:51:19.420Z,48.60
2023-06-30T13:53:46.960Z,48.30
2023-06-30T13:56:14.517Z,48.75
2023-06-30T13:58:42.130Z,49.31
2023-06-30T14:01:09.747Z,50.06
2023-06-30T14:03:39.163Z,50.90
2023-06-30T14:06:07.057Z,51.66
2023-06-30T14:08:35.336Z,52.35
2023-06-30T14:11:04.378Z,52.67
2023-06-30T14:13:32.353Z,53.01
2023-06-30T14:15:59.990Z,53.30
2023-06-30T14:18:27.868Z,54.31
2023-06-30T14:20:55.653Z,54.19
2023-06-30T14:23:23.403Z,53.54
2023-06-30T14:25:51.359Z,54.47
2023-06-30T14:28:19.029Z,55.42
2023-06-30T14:30:46.608Z,56.89
2023-06-30T14:33:14.361Z,57.97
2023-06-30T14:35:41.930Z,58.30
2023-06-30T14:38:09.470Z,58.88
2023-06-30T14:40:37.105Z,59.31
2023-06-30T14:43:05.173Z,59.71
2023-06-30T14:45:32.789Z,59.89
2023-06-30T14:48:00.445Z,59.99
2023-06-30T14:50:28.442Z,60.24
2023-06-30T14:52:56.069Z,60.30
2023-06-30T14:55:23.662Z,60.47
2023-06-30T14:57:51.390Z,61.13
2023-06-30T15:00:18.997Z,59.87
2023-06-30T15:02:46.728Z,58.32
2023-06-30T15:05:14.595Z,57.91
2023-06-30T15:07:43.425Z,57.08
2023-06-30T15:10:12.472Z,55.68
2023-06-30T15:12:40.007Z,55.25
2023-06-30T15:15:08.553Z,55.47
2023-06-30T15:20:28.783Z,56.90
2023-06-30T15:22:56.388Z,57.59
2023-06-30T15:25:25.217Z,58.16
2023-06-30T15:27:53.077Z,58.59
2023-06-30T15:30:20.743Z,59.26
2023-06-30T15:32:49.177Z,59.86
2023-06-30T15:35:16.996Z,59.81
2023-06-30T15:37:44.623Z,59.40
2023-06-30T15:40:12.916Z,59.53
2023-06-30T15:42:40.468Z,59.40
2023-06-30T15:45:08.986Z,59.23
2023-06-30T15:47:36.904Z,59.03
2023-06-30T15:50:05.343Z,59.39
2023-06-30T15:52:32.870Z,59.46
2023-06-30T15:55:18.862Z,59.44
2023-06-30T15:57:46.686Z,59.13
2023-06-30T16:00:16.248Z,58.91
2023-06-30T16:02:43.978Z,58.05
2023-06-30T16:05:11.814Z,57.84
2023-06-30T16:07:39.999Z,57.12
2023-06-30T16:10:07.760Z,56.32
2023-06-30T16:12:35.316Z,56.60
2023-06-30T16:15:05.308Z,56.62
2023-06-30T16:17:34.051Z,56.80
2023-06-30T16:20:03.030Z,56.84
2023-06-30T16:22:31.322Z,57.28
2023-06-30T16:24:58.916Z,57.87
2023-06-30T16:27:26.623Z,58.46
2023-06-30T16:30:19.728Z,58.66
2023-06-30T16:32:48.088Z,59.16
2023-06-30T16:35:16.502Z,59.91
2023-06-30T16:37:44.434Z,60.38
2023-06-30T16:40:12.765Z,60.57
2023-06-30T16:42:41.590Z,61.16
2023-06-30T16:45:10.161Z,61.64
2023-06-30T16:47:38.075Z,62.24
2023-06-30T16:50:06.748Z,62.56
2023-06-30T16:52:35.272Z,63.01
2023-06-30T16:55:06.887Z,63.49
2023-06-30T16:58:01.128Z,63.58
2023-06-30T17:00:28.960Z,63.13
2023-06-30T17:02:56.846Z,62.53
2023-06-30T17:05:25.405Z,62.54
2023-06-30T17:07:53.211Z,61.45
2023-06-30T17:10:20.785Z,60.12
2023-06-30T17:12:48.352Z,58.49
2023-06-30T17:15:15.982Z,57.52
2023-06-30T17:17:43.536Z,57.57
2023-06-30T17:20:11.959Z,57.77
2023-06-30T17:22:39.565Z,57.47
2023-06-30T17:25:07.773Z,57.76
2023-06-30T17:27:35.343Z,57.66
2023-06-30T17:30:03.219Z,58.01
2023-06-30T17:32:30.770Z,58.43
2023-06-30T17:34:58.427Z,58.76
2023-06-30T17:37:25.986Z,59.08
2023-06-30T17:39:53.879Z,59.29
2023-06-30T17:42:21.536Z,59.79
2023-06-30T17:44:49.101Z,59.90
2023-06-30T17:47:16.688Z,60.30
2023-06-30T17:49:44.578Z,60.23
2023-06-30T17:52:12.166Z,60.20
2023-06-30T17:54:39.881Z,60.73
2023-06-30T17:57:08.216Z,61.06
2023-06-30T17:59:35.879Z,61.52
2023-06-30T18:02:05.426Z,61.73
2023-06-30T18:04:34.178Z,62.06
2023-06-30T18:07:05.026Z,62.44
2023-06-30T18:09:34.404Z,62.77
2023-06-30T18:12:02.360Z,63.04
2023-06-30T18:14:30.626Z,63.15
2023-06-30T18:16:58.799Z,63.53
2023-06-30T18:19:26.602Z,63.76
2023-06-30T18:21:54.820Z,63.91
2023-06-30T18:24:22.685Z,64.10
2023-06-30T18:26:50.659Z,64.35
2023-06-30T18:29:22.596Z,64.16
2023-06-30T18:31:51.058Z,64.21
2023-06-30T18:34:22.125Z,64.41
2023-06-30T18:36:49.761Z,64.27
2023-06-30T18:39:17.996Z,64.54
2023-06-30T18:41:45.726Z,64.69
2023-06-30T18:44:13.342Z,65.00
2023-06-30T18:46:40.959Z,65.11
2023-06-30T18:49:12.116Z,65.27
2023-06-30T18:51:42.970Z,65.27
2023-06-30T18:54:10.978Z,65.26
2023-06-30T18:56:38.818Z,65.46
2023-06-30T18:59:06.605Z,65.89
2023-06-30T19:01:34.387Z,66.19
2023-06-30T19:04:02.274Z,66.49
2023-06-30T19:06:30.181Z,66.61
2023-06-30T19:08:57.730Z,66.62
2023-06-30T19:11:25.682Z,66.79
2023-06-30T19:13:53.249Z,66.94
2023-06-30T19:16:21.761Z,67.14
2023-06-30T19:18:49.521Z,67.32
2023-06-30T19:21:17.674Z,67.75
2023-06-30T19:23:45.442Z,67.87
2023-06-30T19:26:13.071Z,68.30
2023-06-30T19:28:40.795Z,68.45
2023-06-30T19:31:08.898Z,68.67
2023-06-30T19:33:37.885Z,69.07
2023-06-30T19:36:06.235Z,69.36
2023-06-30T19:38:37.034Z,69.66
2023-06-30T19:41:04.702Z,69.53
2023-06-30T19:43:32.267Z,69.59
2023-06-30T19:46:01.135Z,69.85
2023-06-30T19:48:28.776Z,69.90
2023-06-30T19:50:56.317Z,70.19
2023-06-30T19:53:23.989Z,70.43
2023-06-30T19:55:52.651Z,70.75
2023-06-30T19:58:20.202Z,70.81
2023-06-30T20:00:48.128Z,70.83
2023-06-30T20:03:15.833Z,70.89
2023-06-30T20:05:43.665Z,70.79
2023-06-30T20:08:11.279Z,70.94
2023-06-30T20:10:38.895Z,70.90
2023-06-30T20:13:07.802Z,71.07
2023-06-30T20:15:35.530Z,71.05
2023-06-30T20:18:03.124Z,71.23
2023-06-30T20:20:30.798Z,70.99
2023-06-30T20:22:58.385Z,70.96
2023-06-30T20:25:28.605Z,70.93
2023-06-30T20:27:56.300Z,70.97
2023-06-30T20:30:23.931Z,70.70
2023-06-30T20:32:51.622Z,70.52
2023-06-30T20:35:20.190Z,70.21
2023-06-30T20:37:48.090Z,70.14
2023-06-30T20:40:15.935Z,70.06
2023-06-30T20:42:43.626Z,70.13
2023-06-30T20:45:11.254Z,70.23
2023-06-30T20:47:39.031Z,70.24
2023-06-30T20:50:09.240Z,70.06
2023-06-30T20:52:37.509Z,69.85
2023-06-30T20:55:05.841Z,69.77
2023-06-30T20:57:33.799Z,69.97
2023-06-30T21:00:01.393Z,70.12
2023-06-30T21:02:28.946Z,69.90
2023-06-30T21:04:58.851Z,69.59
2023-06-30T21:07:26.810Z,69.36
2023-06-30T21:09:54.397Z,69.55
2023-06-30T21:12:22.015Z,69.57
2023-06-30T21:14:49.580Z,69.69
2023-06-30T21:17:17.258Z,70.03
2023-06-30T21:19:45.034Z,69.89
2023-06-30T21:22:12.623Z,70.03
2023-06-30T21:24:40.284Z,69.96
2023-06-30T21:27:07.872Z,70.05
2023-06-30T21:29:35.452Z,70.02
2023-06-30T21:32:03.921Z,69.64
2023-06-30T21:34:35.861Z,69.80
2023-06-30T21:37:04.007Z,69.67
2023-06-30T21:39:31.675Z,69.80
2023-06-30T21:41:59.295Z,69.91
2023-06-30T21:44:27.000Z,69.94
2023-06-30T21:46:54.624Z,69.90
2023-06-30T21:49:22.216Z,69.97
2023-06-30T21:51:49.885Z,69.92
2023-06-30T21:54:27.210Z,70.17
2023-06-30T21:57:04.741Z,70.02
2023-06-30T21:59:32.302Z,69.96
2023-06-30T22:01:59.900Z,69.76
2023-06-30T22:04:27.874Z,69.73
2023-06-30T22:06:55.700Z,69.75
2023-06-30T22:09:23.274Z,69.94
2023-06-30T22:11:50.866Z,70.16
2023-06-30T22:14:18.513Z,70.50
2023-06-30T22:16:46.121Z,70.59
2023-06-30T22:19:13.690Z,70.83
2023-06-30T22:21:41.858Z,71.21
2023-06-30T22:24:09.438Z,71.52
2023-06-30T22:26:37.147Z,71.60
2023-06-30T22:29:05.053Z,71.79
2023-06-30T22:31:32.708Z,71.89
2023-06-30T22:34:00.433Z,72.09
2023-06-30T22:36:27.958Z,72.34
2023-06-30T22:38:55.596Z,72.52
2023-06-30T22:41:23.694Z,72.48
2023-06-30T22:43:51.245Z,72.57
2023-06-30T22:46:18.869Z,72.49
2023-06-30T22:48:46.431Z,72.65
2023-06-30T22:51:16.531Z,72.63
2023-06-30T22:53:44.138Z,72.33
2023-06-30T22:56:11.835Z,72.27
2023-06-30T22:58:39.345Z,72.15
2023-06-30T23:01:08.597Z,72.20
2023-06-30T23:03:36.303Z,72.08
2023-06-30T23:06:04.092Z,72.02
2023-06-30T23:08:31.660Z,71.81
2023-06-30T23:10:59.484Z,71.59
2023-06-30T23:13:27.030Z,71.47
2023-06-30T23:15:55.197Z,71.50
2023-06-30T23:18:22.878Z,71.53
2023-06-30T23:20:50.677Z,71.60
2023-06-30T23:23:18.544Z,71.66
2023-06-30T23:25:46.218Z,71.63
2023-06-30T23:28:13.754Z,71.72
2023-06-30T23:30:43.848Z,71.89
2023-06-30T23:33:11.566Z,71.86
2023-06-30T23:35:39.316Z,71.91
2023-06-30T23:38:06.932Z,72.00
2023-06-30T23:40:34.594Z,72.20
2023-06-30T23:43:02.271Z,72.36
2023-06-30T23:45:29.862Z,72.41
2023-06-30T23:48:01.096Z,72.61
2023-06-30T23:50:41.732Z,72.65
2023-06-30T23:53:09.541Z,72.81
2023-06-30T23:55:36.991Z,72.95
2023-06-30T23:58:04.905Z,73.02
